sensor_id;sensor_type;location;lat;lon;timestamp;P1;durP1;ratioP1;P2;durP2;ratioP2
57969;SDS011;43777;42.656;23.264;2022-12-07T00:00:55;70.32;;;42.08;;
57969;SDS011;43777;42.656;23.264;2022-12-07T00:03:21;69.78;;;41.72;;
57969;SDS011;43777;42.656;23.264;2022-12-07T00:05:47;69.07;;;41.38;;
57969;SDS011;43777;42.656;23.264;2022-12-07T00:08:13;89.80;;;60.97;;
57969;SDS011;43777;42.656;23.264;2022-12-07T00:10:39;90.35;;;59.83;;
57969;SDS011;43777;42.656;23.264;2022-12-07T00:13:05;66.50;;;41.97;;
57969;SDS011;43777;42.656;23.264;2022-12-07T00:15:33;61.75;;;41.67;;
57969;SDS011;43777;42.656;23.264;2022-12-07T00:17:59;60.95;;;41.28;;
57969;SDS011;43777;42.656;23.264;2022-12-07T00:20:25;65.20;;;42.38;;
57969;SDS011;43777;42.656;23.264;2022-12-07T00:22:51;64.35;;;40.25;;
57969;SDS011;43777;42.656;23.264;2022-12-07T00:25:17;62.50;;;40.28;;
57969;SDS011;43777;42.656;23.264;2022-12-07T00:27:43;60.33;;;39.42;;
57969;SDS011;43777;42.656;23.264;2022-12-07T00:30:10;60.13;;;39.70;;
57969;SDS011;43777;42.656;23.264;2022-12-07T00:32:36;65.90;;;42.95;;
57969;SDS011;43777;42.656;23.264;2022-12-07T00:35:02;68.72;;;43.30;;
57969;SDS011;43777;42.656;23.264;2022-12-07T00:37:28;67.07;;;43.63;;
57969;SDS011;43777;42.656;23.264;2022-12-07T00:39:54;70.03;;;42.45;;
57969;SDS011;43777;42.656;23.264;2022-12-07T00:42:20;65.07;;;41.22;;
57969;SDS011;43777;42.656;23.264;2022-12-07T00:44:46;60.60;;;39.60;;
57969;SDS011;43777;42.656;23.264;2022-12-07T00:47:12;62.17;;;40.33;;
57969;SDS011;43777;42.656;23.264;2022-12-07T00:49:38;64.88;;;40.03;;
57969;SDS011;43777;42.656;23.264;2022-12-07T00:52:04;62.67;;;40.08;;
57969;SDS011;43777;42.656;23.264;2022-12-07T00:54:30;60.72;;;40.60;;
57969;SDS011;43777;42.656;23.264;2022-12-07T00:56:56;56.10;;;37.85;;
57969;SDS011;43777;42.656;23.264;2022-12-07T00:59:22;68.95;;;43.20;;
57969;SDS011;43777;42.656;23.264;2022-12-07T01:01:48;64.78;;;40.63;;
57969;SDS011;43777;42.656;23.264;2022-12-07T01:04:14;63.20;;;41.08;;
57969;SDS011;43777;42.656;23.264;2022-12-07T01:06:40;65.28;;;42.05;;
57969;SDS011;43777;42.656;23.264;2022-12-07T01:09:06;64.03;;;39.08;;
57969;SDS011;43777;42.656;23.264;2022-12-07T01:11:32;61.15;;;38.80;;
57969;SDS011;43777;42.656;23.264;2022-12-07T01:13:59;66.25;;;40.88;;
57969;SDS011;43777;42.656;23.264;2022-12-07T01:16:26;60.65;;;39.50;;
57969;SDS011;43777;42.656;23.264;2022-12-07T01:18:53;65.78;;;39.65;;
57969;SDS011;43777;42.656;23.264;2022-12-07T01:21:23;57.17;;;39.67;;
57969;SDS011;43777;42.656;23.264;2022-12-07T01:23:50;61.88;;;38.85;;
57969;SDS011;43777;42.656;23.264;2022-12-07T01:26:17;61.38;;;39.75;;
57969;SDS011;43777;42.656;23.264;2022-12-07T01:28:44;69.03;;;40.33;;
57969;SDS011;43777;42.656;23.264;2022-12-07T01:31:11;56.78;;;37.90;;
57969;SDS011;43777;42.656;23.264;2022-12-07T01:33:40;60.28;;;39.05;;
57969;SDS011;43777;42.656;23.264;2022-12-07T01:36:20;59.92;;;38.47;;
57969;SDS011;43777;42.656;23.264;2022-12-07T01:38:47;61.67;;;38.75;;
57969;SDS011;43777;42.656;23.264;2022-12-07T01:41:14;64.45;;;37.22;;
57969;SDS011;43777;42.656;23.264;2022-12-07T01:46:24;68.80;;;41.00;;
57969;SDS011;43777;42.656;23.264;2022-12-07T01:48:50;69.20;;;41.13;;
57969;SDS011;43777;42.656;23.264;2022-12-07T01:51:16;70.25;;;44.03;;
57969;SDS011;43777;42.656;23.264;2022-12-07T01:53:43;61.17;;;41.15;;
57969;SDS011;43777;42.656;23.264;2022-12-07T01:56:12;72.03;;;41.67;;
57969;SDS011;43777;42.656;23.264;2022-12-07T01:58:40;64.85;;;40.60;;
57969;SDS011;43777;42.656;23.264;2022-12-07T02:01:06;62.65;;;39.47;;
57969;SDS011;43777;42.656;23.264;2022-12-07T02:03:34;57.42;;;36.78;;
57969;SDS011;43777;42.656;23.264;2022-12-07T02:06:01;57.97;;;37.42;;
57969;SDS011;43777;42.656;23.264;2022-12-07T02:08:28;62.10;;;37.92;;
57969;SDS011;43777;42.656;23.264;2022-12-07T02:10:54;62.33;;;38.70;;
57969;SDS011;43777;42.656;23.264;2022-12-07T02:13:24;60.33;;;38.00;;
57969;SDS011;43777;42.656;23.264;2022-12-07T02:23:52;62.55;;;40.78;;
57969;SDS011;43777;42.656;23.264;2022-12-07T02:31:59;62.90;;;38.45;;
57969;SDS011;43777;42.656;23.264;2022-12-07T02:37:12;55.22;;;36.63;;
57969;SDS011;43777;42.656;23.264;2022-12-07T02:39:46;54.75;;;36.55;;
57969;SDS011;43777;42.656;23.264;2022-12-07T02:42:18;55.45;;;36.67;;
57969;SDS011;43777;42.656;23.264;2022-12-07T02:44:46;69.72;;;40.60;;
57969;SDS011;43777;42.656;23.264;2022-12-07T02:47:14;59.38;;;37.03;;
57969;SDS011;43777;42.656;23.264;2022-12-07T02:49:42;59.63;;;37.65;;
57969;SDS011;43777;42.656;23.264;2022-12-07T02:52:08;57.90;;;37.15;;
57969;SDS011;43777;42.656;23.264;2022-12-07T02:54:34;57.35;;;37.58;;
57969;SDS011;43777;42.656;23.264;2022-12-07T03:00:03;52.63;;;35.00;;
57969;SDS011;43777;42.656;23.264;2022-12-07T03:08:04;49.58;;;34.78;;
57969;SDS011;43777;42.656;23.264;2022-12-07T03:13:02;52.55;;;34.95;;
57969;SDS011;43777;42.656;23.264;2022-12-07T03:15:32;52.63;;;34.88;;
57969;SDS011;43777;42.656;23.264;2022-12-07T03:17:59;53.53;;;35.78;;
57969;SDS011;43777;42.656;23.264;2022-12-07T03:20:27;50.85;;;33.83;;
57969;SDS011;43777;42.656;23.264;2022-12-07T03:22:55;52.83;;;34.90;;
57969;SDS011;43777;42.656;23.264;2022-12-07T03:25:21;59.53;;;39.47;;
57969;SDS011;43777;42.656;23.264;2022-12-07T03:27:58;52.60;;;35.75;;
57969;SDS011;43777;42.656;23.264;2022-12-07T03:30:39;56.33;;;34.37;;
57969;SDS011;43777;42.656;23.264;2022-12-07T03:33:12;53.50;;;32.47;;
57969;SDS011;43777;42.656;23.264;2022-12-07T03:35:42;46.45;;;30.23;;
57969;SDS011;43777;42.656;23.264;2022-12-07T03:38:17;49.28;;;31.90;;
57969;SDS011;43777;42.656;23.264;2022-12-07T03:43:14;47.40;;;29.70;;
57969;SDS011;43777;42.656;23.264;2022-12-07T03:45:42;47.05;;;31.50;;
57969;SDS011;43777;42.656;23.264;2022-12-07T03:51:25;51.67;;;31.10;;
57969;SDS011;43777;42.656;23.264;2022-12-07T03:53:25;49.38;;;31.15;;
57969;SDS011;43777;42.656;23.264;2022-12-07T03:55:53;49.92;;;31.35;;
57969;SDS011;43777;42.656;23.264;2022-12-07T03:58:20;45.92;;;29.00;;
57969;SDS011;43777;42.656;23.264;2022-12-07T04:00:47;41.63;;;28.67;;
57969;SDS011;43777;42.656;23.264;2022-12-07T04:03:14;40.25;;;27.00;;
57969;SDS011;43777;42.656;23.264;2022-12-07T04:05:40;42.35;;;28.08;;
57969;SDS011;43777;42.656;23.264;2022-12-07T04:08:07;48.03;;;29.55;;
57969;SDS011;43777;42.656;23.264;2022-12-07T04:10:33;39.83;;;27.92;;
57969;SDS011;43777;42.656;23.264;2022-12-07T04:12:59;42.00;;;27.52;;
57969;SDS011;43777;42.656;23.264;2022-12-07T04:15:25;38.73;;;27.27;;
57969;SDS011;43777;42.656;23.264;2022-12-07T04:17:51;38.45;;;26.08;;
57969;SDS011;43777;42.656;23.264;2022-12-07T04:20:17;41.42;;;27.08;;
57969;SDS011;43777;42.656;23.264;2022-12-07T04:22:43;40.25;;;27.35;;
57969;SDS011;43777;42.656;23.264;2022-12-07T04:25:09;38.55;;;25.33;;
57969;SDS011;43777;42.656;23.264;2022-12-07T04:27:35;37.72;;;25.13;;
57969;SDS011;43777;42.656;23.264;2022-12-07T04:30:02;40.43;;;25.40;;
57969;SDS011;43777;42.656;23.264;2022-12-07T04:32:28;42.20;;;28.15;;
57969;SDS011;43777;42.656;23.264;2022-12-07T04:34:54;45.40;;;28.75;;
57969;SDS011;43777;42.656;23.264;2022-12-07T04:37:20;48.00;;;30.73;;
57969;SDS011;43777;42.656;23.264;2022-12-07T04:39:46;41.80;;;25.75;;
57969;SDS011;43777;42.656;23.264;2022-12-07T04:42:12;38.85;;;24.92;;
57969;SDS011;43777;42.656;23.264;2022-12-07T04:44:39;34.40;;;23.85;;
57969;SDS011;43777;42.656;23.264;2022-12-07T04:47:05;34.13;;;22.97;;
57969;SDS011;43777;42.656;23.264;2022-12-07T04:49:31;40.93;;;24.40;;
57969;SDS011;43777;42.656;23.264;2022-12-07T04:51:57;36.97;;;23.40;;
57969;SDS011;43777;42.656;23.264;2022-12-07T04:54:23;34.88;;;22.10;;
57969;SDS011;43777;42.656;23.264;2022-12-07T04:56:49;33.63;;;23.63;;
57969;SDS011;43777;42.656;23.264;2022-12-07T04:59:15;38.53;;;23.80;;
57969;SDS011;43777;42.656;23.264;2022-12-07T05:01:42;31.70;;;23.13;;
57969;SDS011;43777;42.656;23.264;2022-12-07T05:04:08;35.83;;;23.30;;
57969;SDS011;43777;42.656;23.264;2022-12-07T05:06:35;51.73;;;28.90;;
57969;SDS011;43777;42.656;23.264;2022-12-07T05:09:01;56.20;;;30.93;;
57969;SDS011;43777;42.656;23.264;2022-12-07T05:11:28;65.50;;;33.83;;
57969;SDS011;43777;42.656;23.264;2022-12-07T05:14:04;87.32;;;40.63;;
57969;SDS011;43777;42.656;23.264;2022-12-07T05:16:31;40.60;;;24.07;;
57969;SDS011;43777;42.656;23.264;2022-12-07T05:18:57;42.70;;;25.95;;
57969;SDS011;43777;42.656;23.264;2022-12-07T05:21:23;31.35;;;21.88;;
57969;SDS011;43777;42.656;23.264;2022-12-07T05:23:49;31.98;;;22.02;;
57969;SDS011;43777;42.656;23.264;2022-12-07T05:26:15;38.10;;;22.75;;
57969;SDS011;43777;42.656;23.264;2022-12-07T05:28:41;35.60;;;22.93;;
57969;SDS011;43777;42.656;23.264;2022-12-07T05:31:07;36.30;;;23.55;;
57969;SDS011;43777;42.656;23.264;2022-12-07T05:33:33;32.83;;;22.55;;
57969;SDS011;43777;42.656;23.264;2022-12-07T05:35:59;33.85;;;22.40;;
57969;SDS011;43777;42.656;23.264;2022-12-07T05:38:30;33.45;;;22.45;;
57969;SDS011;43777;42.656;23.264;2022-12-07T05:40:59;37.55;;;23.60;;
57969;SDS011;43777;42.656;23.264;2022-12-07T05:43:26;33.10;;;23.00;;
57969;SDS011;43777;42.656;23.264;2022-12-07T05:45:52;37.33;;;25.45;;
57969;SDS011;43777;42.656;23.264;2022-12-07T05:48:18;49.47;;;26.48;;
57969;SDS011;43777;42.656;23.264;2022-12-07T05:50:46;36.30;;;22.27;;
57969;SDS011;43777;42.656;23.264;2022-12-07T05:53:12;41.80;;;24.60;;
57969;SDS011;43777;42.656;23.264;2022-12-07T05:55:39;34.92;;;23.38;;
57969;SDS011;43777;42.656;23.264;2022-12-07T05:58:05;37.33;;;23.83;;
57969;SDS011;43777;42.656;23.264;2022-12-07T06:00:49;34.75;;;22.65;;
57969;SDS011;43777;42.656;23.264;2022-12-07T06:03:15;39.50;;;28.02;;
57969;SDS011;43777;42.656;23.264;2022-12-07T06:05:41;40.67;;;27.55;;
57969;SDS011;43777;42.656;23.264;2022-12-07T06:08:07;43.35;;;26.23;;
57969;SDS011;43777;42.656;23.264;2022-12-07T06:10:33;40.40;;;27.27;;
57969;SDS011;43777;42.656;23.264;2022-12-07T06:12:59;39.92;;;26.83;;
57969;SDS011;43777;42.656;23.264;2022-12-07T06:15:25;44.05;;;29.30;;
57969;SDS011;43777;42.656;23.264;2022-12-07T06:17:51;44.90;;;29.43;;
57969;SDS011;43777;42.656;23.264;2022-12-07T06:20:17;45.83;;;30.93;;
57969;SDS011;43777;42.656;23.264;2022-12-07T06:22:43;44.65;;;30.65;;
57969;SDS011;43777;42.656;23.264;2022-12-07T06:25:09;50.70;;;29.60;;
57969;SDS011;43777;42.656;23.264;2022-12-07T06:27:35;50.97;;;32.35;;
57969;SDS011;43777;42.656;23.264;2022-12-07T06:30:02;50.60;;;31.17;;
57969;SDS011;43777;42.656;23.264;2022-12-07T06:32:31;47.88;;;29.15;;
57969;SDS011;43777;42.656;23.264;2022-12-07T06:34:58;44.92;;;29.30;;
57969;SDS011;43777;42.656;23.264;2022-12-07T06:37:24;47.42;;;30.63;;
57969;SDS011;43777;42.656;23.264;2022-12-07T06:39:50;50.35;;;29.75;;
57969;SDS011;43777;42.656;23.264;2022-12-07T06:42:16;46.92;;;29.92;;
57969;SDS011;43777;42.656;23.264;2022-12-07T06:44:42;47.20;;;29.10;;
57969;SDS011;43777;42.656;23.264;2022-12-07T06:47:08;49.90;;;30.10;;
57969;SDS011;43777;42.656;23.264;2022-12-07T06:49:34;52.50;;;30.70;;
57969;SDS011;43777;42.656;23.264;2022-12-07T06:52:00;48.67;;;32.25;;
57969;SDS011;43777;42.656;23.264;2022-12-07T06:54:26;50.97;;;31.02;;
57969;SDS011;43777;42.656;23.264;2022-12-07T06:56:55;60.35;;;41.53;;
57969;SDS011;43777;42.656;23.264;2022-12-07T06:59:21;57.92;;;36.28;;
57969;SDS011;43777;42.656;23.264;2022-12-07T07:01:47;59.60;;;36.75;;
57969;SDS011;43777;42.656;23.264;2022-12-07T07:04:13;55.38;;;37.88;;
57969;SDS011;43777;42.656;23.264;2022-12-07T07:06:40;59.08;;;36.92;;
57969;SDS011;43777;42.656;23.264;2022-12-07T07:09:06;57.45;;;37.53;;
57969;SDS011;43777;42.656;23.264;2022-12-07T07:11:34;59.63;;;37.75;;
57969;SDS011;43777;42.656;23.264;2022-12-07T07:14:00;61.17;;;38.63;;
57969;SDS011;43777;42.656;23.264;2022-12-07T07:16:28;62.15;;;40.35;;
57969;SDS011;43777;42.656;23.264;2022-12-07T07:18:55;60.78;;;37.63;;
57969;SDS011;43777;42.656;23.264;2022-12-07T07:21:21;62.88;;;36.92;;
57969;SDS011;43777;42.656;23.264;2022-12-07T07:23:47;60.63;;;37.20;;
57969;SDS011;43777;42.656;23.264;2022-12-07T07:26:13;54.22;;;35.95;;
57969;SDS011;43777;42.656;23.264;2022-12-07T07:28:39;56.38;;;34.85;;
57969;SDS011;43777;42.656;23.264;2022-12-07T07:31:05;62.90;;;39.38;;
57969;SDS011;43777;42.656;23.264;2022-12-07T07:33:31;62.35;;;38.65;;
57969;SDS011;43777;42.656;23.264;2022-12-07T07:35:57;60.00;;;38.50;;
57969;SDS011;43777;42.656;23.264;2022-12-07T07:38:23;63.53;;;37.65;;
57969;SDS011;43777;42.656;23.264;2022-12-07T07:40:49;62.70;;;37.08;;
57969;SDS011;43777;42.656;23.264;2022-12-07T07:43:15;58.92;;;37.65;;
57969;SDS011;43777;42.656;23.264;2022-12-07T07:45:41;60.80;;;36.78;;
57969;SDS011;43777;42.656;23.264;2022-12-07T07:48:07;60.40;;;37.42;;
57969;SDS011;43777;42.656;23.264;2022-12-07T07:50:33;58.97;;;37.22;;
57969;SDS011;43777;42.656;23.264;2022-12-07T07:52:59;57.88;;;37.45;;
57969;SDS011;43777;42.656;23.264;2022-12-07T07:55:25;55.97;;;36.67;;
57969;SDS011;43777;42.656;23.264;2022-12-07T07:57:51;54.65;;;36.72;;
57969;SDS011;43777;42.656;23.264;2022-12-07T08:00:18;53.88;;;34.70;;
57969;SDS011;43777;42.656;23.264;2022-12-07T08:02:44;58.35;;;36.25;;
57969;SDS011;43777;42.656;23.264;2022-12-07T08:05:11;57.13;;;36.15;;
57969;SDS011;43777;42.656;23.264;2022-12-07T08:07:37;60.92;;;37.13;;
57969;SDS011;43777;42.656;23.264;2022-12-07T08:10:03;60.75;;;37.95;;
57969;SDS011;43777;42.656;23.264;2022-12-07T08:12:29;57.33;;;36.42;;
57969;SDS011;43777;42.656;23.264;2022-12-07T08:14:56;57.65;;;37.45;;
57969;SDS011;43777;42.656;23.264;2022-12-07T08:17:22;60.55;;;39.20;;
57969;SDS011;43777;42.656;23.264;2022-12-07T08:19:48;60.03;;;36.75;;
57969;SDS011;43777;42.656;23.264;2022-12-07T08:22:14;62.30;;;37.13;;
57969;SDS011;43777;42.656;23.264;2022-12-07T08:24:40;58.97;;;36.30;;
57969;SDS011;43777;42.656;23.264;2022-12-07T08:27:06;57.65;;;37.38;;
57969;SDS011;43777;42.656;23.264;2022-12-07T08:29:32;56.03;;;36.33;;
57969;SDS011;43777;42.656;23.264;2022-12-07T08:31:58;65.07;;;40.38;;
57969;SDS011;43777;42.656;23.264;2022-12-07T08:34:26;59.28;;;39.90;;
57969;SDS011;43777;42.656;23.264;2022-12-07T08:36:52;59.10;;;39.28;;
57969;SDS011;43777;42.656;23.264;2022-12-07T08:39:18;65.20;;;38.85;;
57969;SDS011;43777;42.656;23.264;2022-12-07T08:41:44;59.38;;;36.03;;
57969;SDS011;43777;42.656;23.264;2022-12-07T08:44:10;56.67;;;35.65;;
57969;SDS011;43777;42.656;23.264;2022-12-07T08:46:40;53.35;;;34.63;;
57969;SDS011;43777;42.656;23.264;2022-12-07T08:49:10;51.35;;;33.45;;
57969;SDS011;43777;42.656;23.264;2022-12-07T08:51:36;50.92;;;33.58;;
57969;SDS011;43777;42.656;23.264;2022-12-07T08:54:04;55.60;;;33.28;;
57969;SDS011;43777;42.656;23.264;2022-12-07T08:56:30;50.25;;;31.35;;
57969;SDS011;43777;42.656;23.264;2022-12-07T08:58:57;52.97;;;33.63;;
57969;SDS011;43777;42.656;23.264;2022-12-07T09:01:23;46.72;;;30.45;;
57969;SDS011;43777;42.656;23.264;2022-12-07T09:03:49;45.25;;;30.00;;
57969;SDS011;43777;42.656;23.264;2022-12-07T09:06:15;46.63;;;30.42;;
57969;SDS011;43777;42.656;23.264;2022-12-07T09:08:42;51.22;;;30.05;;
57969;SDS011;43777;42.656;23.264;2022-12-07T09:11:10;49.10;;;29.55;;
57969;SDS011;43777;42.656;23.264;2022-12-07T09:13:36;50.13;;;31.35;;
57969;SDS011;43777;42.656;23.264;2022-12-07T09:16:02;54.08;;;32.83;;
57969;SDS011;43777;42.656;23.264;2022-12-07T09:18:28;49.63;;;31.15;;
57969;SDS011;43777;42.656;23.264;2022-12-07T09:20:54;48.33;;;30.25;;
57969;SDS011;43777;42.656;23.264;2022-12-07T09:23:21;51.75;;;32.50;;
57969;SDS011;43777;42.656;23.264;2022-12-07T09:25:47;52.72;;;29.75;;
57969;SDS011;43777;42.656;23.264;2022-12-07T09:28:13;54.22;;;32.85;;
57969;SDS011;43777;42.656;23.264;2022-12-07T09:30:44;53.20;;;31.55;;
57969;SDS011;43777;42.656;23.264;2022-12-07T09:33:11;48.00;;;28.25;;
57969;SDS011;43777;42.656;23.264;2022-12-07T09:35:37;43.53;;;27.83;;
57969;SDS011;43777;42.656;23.264;2022-12-07T09:38:03;45.95;;;28.52;;
57969;SDS011;43777;42.656;23.264;2022-12-07T09:40:29;47.33;;;28.38;;
57969;SDS011;43777;42.656;23.264;2022-12-07T09:42:55;49.60;;;28.58;;
57969;SDS011;43777;42.656;23.264;2022-12-07T09:45:25;50.75;;;30.13;;
57969;SDS011;43777;42.656;23.264;2022-12-07T09:47:52;47.40;;;29.80;;
57969;SDS011;43777;42.656;23.264;2022-12-07T09:50:20;45.28;;;29.13;;
57969;SDS011;43777;42.656;23.264;2022-12-07T09:52:47;51.72;;;28.23;;
57969;SDS011;43777;42.656;23.264;2022-12-07T09:55:20;45.30;;;28.48;;
57969;SDS011;43777;42.656;23.264;2022-12-07T09:57:46;50.60;;;28.23;;
57969;SDS011;43777;42.656;23.264;2022-12-07T10:00:14;41.42;;;25.02;;
57969;SDS011;43777;42.656;23.264;2022-12-07T10:02:42;42.65;;;27.50;;
57969;SDS011;43777;42.656;23.264;2022-12-07T10:05:12;43.45;;;27.50;;
57969;SDS011;43777;42.656;23.264;2022-12-07T10:07:39;41.70;;;27.83;;
57969;SDS011;43777;42.656;23.264;2022-12-07T10:10:28;41.22;;;26.77;;
57969;SDS011;43777;42.656;23.264;2022-12-07T10:15:20;48.38;;;31.92;;
57969;SDS011;43777;42.656;23.264;2022-12-07T10:17:47;43.75;;;28.23;;
57969;SDS011;43777;42.656;23.264;2022-12-07T10:20:26;39.17;;;26.08;;
57969;SDS011;43777;42.656;23.264;2022-12-07T10:22:57;49.65;;;28.35;;
57969;SDS011;43777;42.656;23.264;2022-12-07T10:25:25;51.03;;;29.60;;
57969;SDS011;43777;42.656;23.264;2022-12-07T10:28:27;44.35;;;27.42;;
57969;SDS011;43777;42.656;23.264;2022-12-07T10:35:57;48.42;;;28.55;;
57969;SDS011;43777;42.656;23.264;2022-12-07T10:38:27;39.47;;;27.08;;
57969;SDS011;43777;42.656;23.264;2022-12-07T10:41:06;41.67;;;26.23;;
57969;SDS011;43777;42.656;23.264;2022-12-07T10:43:32;40.72;;;26.95;;
57969;SDS011;43777;42.656;23.264;2022-12-07T11:03:48;52.50;;;30.27;;
57969;SDS011;43777;42.656;23.264;2022-12-07T11:06:23;44.72;;;27.85;;
57969;SDS011;43777;42.656;23.264;2022-12-07T11:09:00;43.25;;;25.60;;
57969;SDS011;43777;42.656;23.264;2022-12-07T11:11:36;38.38;;;25.48;;
57969;SDS011;43777;42.656;23.264;2022-12-07T11:14:20;40.58;;;24.65;;
57969;SDS011;43777;42.656;23.264;2022-12-07T11:22:09;38.60;;;24.88;;
57969;SDS011;43777;42.656;23.264;2022-12-07T11:24:41;35.40;;;23.50;;
57969;SDS011;43777;42.656;23.264;2022-12-07T11:29:55;33.97;;;22.02;;
57969;SDS011;43777;42.656;23.264;2022-12-07T11:35:19;32.25;;;20.73;;
57969;SDS011;43777;42.656;23.264;2022-12-07T11:37:47;33.33;;;20.17;;
57969;SDS011;43777;42.656;23.264;2022-12-07T11:42:48;34.25;;;20.58;;
57969;SDS011;43777;42.656;23.264;2022-12-07T11:47:47;22.88;;;15.38;;
57969;SDS011;43777;42.656;23.264;2022-12-07T11:58:07;22.73;;;14.73;;
57969;SDS011;43777;42.656;23.264;2022-12-07T12:00:37;20.27;;;14.45;;
57969;SDS011;43777;42.656;23.264;2022-12-07T12:03:14;16.45;;;13.40;;
57969;SDS011;43777;42.656;23.264;2022-12-07T12:05:41;21.92;;;14.40;;
57969;SDS011;43777;42.656;23.264;2022-12-07T12:08:14;20.80;;;12.48;;
57969;SDS011;43777;42.656;23.264;2022-12-07T12:10:46;21.48;;;14.65;;
57969;SDS011;43777;42.656;23.264;2022-12-07T12:21:08;28.55;;;15.95;;
57969;SDS011;43777;42.656;23.264;2022-12-07T12:26:05;26.42;;;17.70;;
57969;SDS011;43777;42.656;23.264;2022-12-07T12:28:38;35.22;;;19.52;;
57969;SDS011;43777;42.656;23.264;2022-12-07T12:33:32;26.73;;;18.73;;
57969;SDS011;43777;42.656;23.264;2022-12-07T12:41:16;22.70;;;17.13;;
57969;SDS011;43777;42.656;23.264;2022-12-07T12:43:58;26.77;;;18.15;;
57969;SDS011;43777;42.656;23.264;2022-12-07T12:54:19;31.73;;;20.95;;
57969;SDS011;43777;42.656;23.264;2022-12-07T12:59:36;34.95;;;21.88;;
57969;SDS011;43777;42.656;23.264;2022-12-07T13:10:33;30.52;;;20.25;;
57969;SDS011;43777;42.656;23.264;2022-12-07T13:20:58;26.48;;;18.17;;
57969;SDS011;43777;42.656;23.264;2022-12-07T13:24:11;28.73;;;17.45;;
57969;SDS011;43777;42.656;23.264;2022-12-07T13:26:13;29.63;;;17.50;;
57969;SDS011;43777;42.656;23.264;2022-12-07T13:28:50;27.20;;;17.60;;
57969;SDS011;43777;42.656;23.264;2022-12-07T13:33:47;26.35;;;17.52;;
57969;SDS011;43777;42.656;23.264;2022-12-07T13:36:17;27.38;;;16.98;;
57969;SDS011;43777;42.656;23.264;2022-12-07T13:38:57;22.98;;;16.63;;
57969;SDS011;43777;42.656;23.264;2022-12-07T13:41:27;22.90;;;16.50;;
57969;SDS011;43777;42.656;23.264;2022-12-07T13:43:59;26.58;;;17.17;;
57969;SDS011;43777;42.656;23.264;2022-12-07T13:46:32;25.83;;;16.83;;
57969;SDS011;43777;42.656;23.264;2022-12-07T13:49:01;34.10;;;18.58;;
57969;SDS011;43777;42.656;23.264;2022-12-07T13:51:28;34.35;;;17.83;;
57969;SDS011;43777;42.656;23.264;2022-12-07T13:54:15;33.00;;;17.30;;
57969;SDS011;43777;42.656;23.264;2022-12-07T13:56:40;31.55;;;16.92;;
57969;SDS011;43777;42.656;23.264;2022-12-07T13:59:14;32.63;;;18.50;;
57969;SDS011;43777;42.656;23.264;2022-12-07T14:01:41;33.83;;;18.67;;
57969;SDS011;43777;42.656;23.264;2022-12-07T14:04:18;24.83;;;16.65;;
57969;SDS011;43777;42.656;23.264;2022-12-07T14:06:48;27.85;;;16.38;;
57969;SDS011;43777;42.656;23.264;2022-12-07T14:09:19;28.02;;;16.67;;
57969;SDS011;43777;42.656;23.264;2022-12-07T14:11:46;28.90;;;17.58;;
57969;SDS011;43777;42.656;23.264;2022-12-07T14:14:15;29.20;;;17.45;;
57969;SDS011;43777;42.656;23.264;2022-12-07T14:16:42;35.88;;;23.80;;
57969;SDS011;43777;42.656;23.264;2022-12-07T14:22:18;38.15;;;25.02;;
57969;SDS011;43777;42.656;23.264;2022-12-07T14:24:45;41.42;;;24.30;;
57969;SDS011;43777;42.656;23.264;2022-12-07T14:27:22;50.55;;;19.08;;
57969;SDS011;43777;42.656;23.264;2022-12-07T14:29:50;31.73;;;17.95;;
57969;SDS011;43777;42.656;23.264;2022-12-07T14:37:30;49.47;;;23.98;;
57969;SDS011;43777;42.656;23.264;2022-12-07T14:39:56;48.13;;;24.77;;
57969;SDS011;43777;42.656;23.264;2022-12-07T14:42:23;40.50;;;26.45;;
57969;SDS011;43777;42.656;23.264;2022-12-07T14:44:50;46.33;;;27.63;;
57969;SDS011;43777;42.656;23.264;2022-12-07T14:47:16;46.67;;;31.02;;
57969;SDS011;43777;42.656;23.264;2022-12-07T14:49:42;70.68;;;32.28;;
57969;SDS011;43777;42.656;23.264;2022-12-07T14:52:13;57.58;;;31.38;;
57969;SDS011;43777;42.656;23.264;2022-12-07T14:54:40;52.40;;;29.25;;
57969;SDS011;43777;42.656;23.264;2022-12-07T14:57:08;53.80;;;31.23;;
57969;SDS011;43777;42.656;23.264;2022-12-07T14:59:35;46.85;;;30.90;;
57969;SDS011;43777;42.656;23.264;2022-12-07T15:02:01;43.33;;;29.90;;
57969;SDS011;43777;42.656;23.264;2022-12-07T15:04:27;50.53;;;31.90;;
57969;SDS011;43777;42.656;23.264;2022-12-07T15:07:00;63.67;;;33.53;;
57969;SDS011;43777;42.656;23.264;2022-12-07T15:09:27;48.40;;;31.20;;
57969;SDS011;43777;42.656;23.264;2022-12-07T15:11:53;42.03;;;27.30;;
57969;SDS011;43777;42.656;23.264;2022-12-07T15:14:19;56.08;;;39.65;;
57969;SDS011;43777;42.656;23.264;2022-12-07T15:16:45;48.50;;;35.13;;
57969;SDS011;43777;42.656;23.264;2022-12-07T15:19:12;33.55;;;23.95;;
57969;SDS011;43777;42.656;23.264;2022-12-07T15:21:39;51.00;;;31.83;;
57969;SDS011;43777;42.656;23.264;2022-12-07T15:24:05;67.65;;;45.47;;
57969;SDS011;43777;42.656;23.264;2022-12-07T15:26:32;110.68;;;74.95;;
57969;SDS011;43777;42.656;23.264;2022-12-07T15:28:58;87.35;;;59.40;;
57969;SDS011;43777;42.656;23.264;2022-12-07T15:31:24;81.82;;;57.30;;
57969;SDS011;43777;42.656;23.264;2022-12-07T15:33:50;40.05;;;27.42;;
57969;SDS011;43777;42.656;23.264;2022-12-07T15:36:20;35.30;;;25.80;;
57969;SDS011;43777;42.656;23.264;2022-12-07T15:38:47;39.88;;;28.55;;
57969;SDS011;43777;42.656;23.264;2022-12-07T15:41:13;37.10;;;25.20;;
57969;SDS011;43777;42.656;23.264;2022-12-07T15:43:39;33.42;;;22.45;;
57969;SDS011;43777;42.656;23.264;2022-12-07T15:46:28;55.70;;;41.03;;
57969;SDS011;43777;42.656;23.264;2022-12-07T15:48:54;31.17;;;22.73;;
57969;SDS011;43777;42.656;23.264;2022-12-07T15:51:20;33.67;;;24.35;;
57969;SDS011;43777;42.656;23.264;2022-12-07T15:53:46;159.77;;;88.57;;
57969;SDS011;43777;42.656;23.264;2022-12-07T15:56:12;88.68;;;59.35;;
57969;SDS011;43777;42.656;23.264;2022-12-07T15:58:38;40.20;;;29.00;;
57969;SDS011;43777;42.656;23.264;2022-12-07T16:01:11;34.03;;;25.30;;
57969;SDS011;43777;42.656;23.264;2022-12-07T16:03:37;29.90;;;21.77;;
57969;SDS011;43777;42.656;23.264;2022-12-07T16:06:04;31.23;;;21.63;;
57969;SDS011;43777;42.656;23.264;2022-12-07T16:08:30;25.80;;;20.13;;
57969;SDS011;43777;42.656;23.264;2022-12-07T16:10:56;42.58;;;26.25;;
57969;SDS011;43777;42.656;23.264;2022-12-07T16:13:22;53.00;;;26.92;;
57969;SDS011;43777;42.656;23.264;2022-12-07T16:15:48;72.57;;;31.92;;
57969;SDS011;43777;42.656;23.264;2022-12-07T16:18:14;66.93;;;33.60;;
57969;SDS011;43777;42.656;23.264;2022-12-07T16:20:40;32.58;;;22.27;;
57969;SDS011;43777;42.656;23.264;2022-12-07T16:23:06;34.33;;;22.15;;
57969;SDS011;43777;42.656;23.264;2022-12-07T16:25:33;40.60;;;23.75;;
57969;SDS011;43777;42.656;23.264;2022-12-07T16:27:59;49.15;;;31.90;;
57969;SDS011;43777;42.656;23.264;2022-12-07T16:30:25;40.95;;;26.52;;
57969;SDS011;43777;42.656;23.264;2022-12-07T16:32:51;37.55;;;26.38;;